Time;durP1;ratioP1;P1;durP2;ratioP2;P2;SDS_P1;SDS_P2;PMS_P1;PMS_P2;Temp;Humidity;BMP_temperature;BMP_pressure;BME280_temperature;BME280_humidity;BME280_pressure;Samples;Min_cycle;Max_cycle;Signal;HPM_P1;HPM_P2
2022/06/06 00:01:12;;;;;;;9.43;6.97;;;564.00;2432.00;;;;;;5092857;28;20081;-53
2022/06/06 00:03:38;;;;;;;10.27;7.13;;;564.00;2432.00;;;;;;5092881;28;20028;-53
2022/06/06 00:06:09;;;;;;;12.25;7.72;;;563.80;2432.00;;;;;;5092874;28;20082;-52
2022/06/06 00:08:35;;;;;;;8.98;7.25;;;563.80;2432.00;;;;;;5092722;28;20043;-53
2022/06/06 00:11:02;;;;;;;10.60;7.55;;;563.70;2124.80;;;;;;5092803;28;20032;-53
2022/06/06 00:13:28;;;;;;;9.10;6.32;;;563.80;2432.00;;;;;;5092808;28;20024;-53
2022/06/06 00:15:54;;;;;;;9.82;7.10;;;563.90;2432.00;;;;;;5092852;28;20031;-53
2022/06/06 00:18:19;;;;;;;10.63;6.43;;;564.00;2432.00;;;;;;5092786;28;20465;-53
2022/06/06 00:20:45;;;;;;;9.50;6.38;;;563.70;2432.00;;;;;;5092616;28;20043;-53
2022/06/06 00:23:11;;;;;;;10.85;7.55;;;563.80;2432.00;;;;;;5092955;28;20059;-54
2022/06/06 00:25:37;;;;;;;11.55;8.30;;;563.70;2432.00;;;;;;5092570;28;20137;-53
2022/06/06 00:28:03;;;;;;;8.35;6.10;;;563.90;2432.00;;;;;;5092421;28;20085;-53
2022/06/06 00:30:28;;;;;;;10.95;6.85;;;564.10;2432.00;;;;;;5092634;28;20020;-52
2022/06/06 00:35:38;;;;;;;8.55;6.78;;;564.00;2432.00;;;;;;5092554;28;20164;-53
2022/06/06 00:38:04;;;;;;;11.32;7.28;;;563.70;2432.00;;;;;;5092320;28;20024;-54
2022/06/06 00:40:30;;;;;;;11.73;7.97;;;563.60;2432.00;;;;;;5092489;28;20385;-51
2022/06/06 00:42:56;;;;;;;14.75;8.48;;;563.50;2432.00;;;;;;5092313;28;20020;-52
2022/06/06 00:45:29;;;;;;;11.48;7.53;;;563.50;2432.00;;;;;;5092274;28;20107;-52
2022/06/06 00:48:21;;;;;;;16.70;8.32;;;563.50;2432.00;;;;;;5091932;28;20032;-54
2022/06/06 00:51:08;;;;;;;13.35;7.03;;;563.50;2432.00;;;;;;5092065;28;20028;-54
2022/06/06 00:53:48;;;;;;;12.25;7.10;;;563.50;2432.00;;;;;;5091880;28;20024;-53
2022/06/06 00:56:13;;;;;;;12.32;7.47;;;563.40;2432.00;;;;;;5091890;28;20028;-53
2022/06/06 00:58:40;;;;;;;13.25;7.38;;;563.40;2432.00;;;;;;5091942;28;20056;-54
2022/06/06 01:01:07;;;;;;;11.45;8.00;;;563.40;2432.00;;;;;;5091646;28;20031;-53
2022/06/06 01:03:38;;;;;;;11.70;7.63;;;563.30;2432.00;;;;;;5092113;28;20482;-54
2022/06/06 01:06:06;;;;;;;10.55;7.82;;;563.40;2432.00;;;;;;5091764;28;20044;-54
2022/06/06 01:08:36;;;;;;;11.27;8.20;;;563.60;2432.00;;;;;;5091928;28;20071;-53
2022/06/06 01:11:02;;;;;;;13.23;7.03;;;563.60;2432.00;;;;;;5091007;28;20089;-55
2022/06/06 01:13:29;;;;;;;13.70;8.45;;;563.50;2432.00;;;;;;5091809;28;20462;-52
2022/06/06 01:16:18;;;;;;;11.52;7.88;;;563.40;2432.00;;;;;;5091890;28;20020;-54
2022/06/06 01:19:05;;;;;;;11.15;7.93;;;563.60;2432.00;;;;;;5091658;28;20055;-53
2022/06/06 01:21:49;;;;;;;10.25;7.25;;;563.50;2432.00;;;;;;5091619;28;20059;-52
2022/06/06 01:24:41;;;;;;;;;;;563.40;2432.00;;;;;;5091658;28;20024;-54
2022/06/06 01:27:39;;;;;;;9.02;7.72;;;563.50;2432.00;;;;;;5086252;28;20436;-54
2022/06/06 01:30:17;;;;;;;11.25;8.13;;;563.40;2432.00;;;;;;5091293;28;20032;-54
2022/06/06 01:32:48;;;;;;;10.10;8.20;;;563.40;2432.00;;;;;;5091180;28;20097;-54
2022/06/06 01:35:32;;;;;;;11.18;7.45;;;563.40;2432.00;;;;;;5091216;28;20419;-54
2022/06/06 01:37:58;;;;;;;8.93;7.97;;;563.40;2432.00;;;;;;5073280;28;20038;-54
2022/06/06 01:40:31;;;;;;;10.77;8.15;;;563.30;2432.00;;;;;;5091113;28;20024;-54
2022/06/06 01:43:11;;;;;;;10.05;7.53;;;563.30;2432.00;;;;;;5091021;28;20462;-54
2022/06/06 01:45:46;;;;;;;12.82;7.03;;;563.40;2355.20;;;;;;5091086;28;20504;-54
2022/06/06 01:48:22;;;;;;;13.43;8.57;;;563.40;2432.00;;;;;;5091134;28;20032;-54
2022/06/06 01:50:48;;;;;;;10.57;6.82;;;563.40;2048.00;;;;;;5090844;28;20032;-54
2022/06/06 01:53:22;;;;;;;9.18;7.10;;;563.30;2380.80;;;;;;5091109;28;20039;-54
2022/06/06 01:55:50;;;;;;;11.60;7.50;;;563.20;2432.00;;;;;;5090968;28;20051;-54
2022/06/06 01:58:16;;;;;;;11.13;7.25;;;563.20;2432.00;;;;;;5090401;28;20135;-54
2022/06/06 02:00:41;;;;;;;10.18;8.32;;;563.20;2432.00;;;;;;5090841;28;20115;-54
2022/06/06 02:03:08;;;;;;;10.60;7.32;;;538.50;2406.40;;;;;;5090668;28;20034;-53
2022/06/06 02:05:34;;;;;;;11.30;7.70;;;538.50;2406.40;;;;;;5090508;28;20028;-53
2022/06/06 02:08:00;;;;;;;8.60;7.03;;;538.30;2406.40;;;;;;5090957;28;20074;-53
2022/06/06 02:10:26;;;;;;;10.45;7.85;;;538.20;2406.40;;;;;;5090493;28;20020;-52
2022/06/06 02:12:52;;;;;;;10.38;7.78;;;538.10;2406.40;;;;;;5090693;28;20028;-54
2022/06/06 02:15:22;;;;;;;19.13;7.85;;;538.10;2406.40;;;;;;5090382;28;20027;-54
2022/06/06 02:17:48;;;;;;;14.90;8.25;;;538.10;2406.40;;;;;;5090330;28;20036;-53
2022/06/06 02:20:17;;;;;;;10.18;7.95;;;538.00;2406.40;;;;;;5090316;28;20093;-53
2022/06/06 02:22:43;;;;;;;15.48;8.82;;;538.00;2406.40;;;;;;5090058;28;20024;-53
2022/06/06 02:25:10;;;;;;;11.07;7.38;;;538.10;2406.40;;;;;;5090516;28;20096;-52
2022/06/06 02:27:37;;;;;;;9.60;8.15;;;538.20;2406.40;;;;;;5090029;28;20088;-54
2022/06/06 02:30:05;;;;;;;11.73;8.30;;;538.30;2406.40;;;;;;5090370;28;20176;-54
2022/06/06 02:32:31;;;;;;;10.60;8.07;;;538.00;2406.40;;;;;;5090318;28;20138;-54
2022/06/06 02:34:58;;;;;;;9.48;8.38;;;538.00;2406.40;;;;;;5090328;28;20530;-54
2022/06/06 02:37:24;;;;;;;10.00;8.25;;;537.90;2406.40;;;;;;5090405;28;20039;-54
2022/06/06 02:39:50;;;;;;;13.35;8.20;;;537.90;2406.40;;;;;;5090301;28;20020;-54
2022/06/06 02:42:16;;;;;;;9.70;7.68;;;537.90;2406.40;;;;;;5090066;28;20032;-54
2022/06/06 02:44:42;;;;;;;12.80;7.72;;;537.90;2406.40;;;;;;5090221;28;20486;-54
2022/06/06 02:47:08;;;;;;;14.35;8.35;;;537.90;2406.40;;;;;;5090124;28;20028;-54
2022/06/06 02:49:35;;;;;;;10.63;8.38;;;537.90;2406.40;;;;;;5089937;28;20024;-54
2022/06/06 02:52:02;;;;;;;11.02;8.20;;;537.90;2406.40;;;;;;5090142;28;20020;-53
2022/06/06 02:54:28;;;;;;;10.77;8.90;;;537.90;2406.40;;;;;;5090378;28;20020;-54
2022/06/06 02:56:54;;;;;;;14.40;8.93;;;538.00;2406.40;;;;;;5089899;28;20500;-54
2022/06/06 02:59:22;;;;;;;10.90;8.35;;;538.00;2406.40;;;;;;5089982;28;20090;-53
2022/06/06 03:01:48;;;;;;;9.38;7.55;;;538.00;2278.40;;;;;;5090017;28;20354;-56
2022/06/06 03:04:14;;;;;;;16.00;8.77;;;538.00;2406.40;;;;;;5089855;28;20043;-57
2022/06/06 03:07:03;;;;;;;10.45;7.50;;;538.00;2304.00;;;;;;5090120;28;20026;-56
2022/06/06 03:09:36;;;;;;;11.82;8.40;;;537.90;2406.40;;;;;;5089992;28;20036;-56
2022/06/06 03:12:53;;;;;;;10.15;7.82;;;538.00;2406.40;;;;;;5089972;28;20033;-55
2022/06/06 03:21:49;;;;;;;11.68;7.22;;;538.00;2406.40;;;;;;4949788;29;20082;-55
2022/06/06 03:24:27;;;;;;;9.82;7.53;;;538.10;2406.40;;;;;;4949552;29;20043;-55
2022/06/06 03:27:11;;;;;;;10.40;7.90;;;538.20;2406.40;;;;;;4949354;29;20035;-55
2022/06/06 03:30:01;;;;;;;9.80;7.82;;;538.20;2406.40;;;;;;4949391;29;20055;-55
2022/06/06 03:32:38;;;;;;;10.10;7.70;;;538.30;2406.40;;;;;;4949529;29;20039;-54
2022/06/06 03:35:33;;;;;;;9.25;7.05;;;538.40;2406.40;;;;;;4951332;28;20035;-55
2022/06/06 03:38:14;;;;;;;13.10;7.47;;;538.50;2406.40;;;;;;4953208;29;20046;-54
2022/06/06 03:40:43;;;;;;;9.23;7.68;;;538.50;2022.40;;;;;;4953150;29;20034;-55
2022/06/06 03:43:34;;;;;;;11.48;7.75;;;538.40;2150.40;;;;;;4953113;29;20035;-54
2022/06/06 03:46:17;;;;;;;9.30;7.85;;;538.40;2073.60;;;;;;4953013;29;20110;-55
2022/06/06 03:49:14;;;;;;;10.82;7.88;;;538.50;2406.40;;;;;;4952544;29;20051;-55
2022/06/06 03:52:10;;;;;;;11.20;7.55;;;538.50;2406.40;;;;;;5015763;28;20041;-55
2022/06/06 03:54:35;;;;;;;13.23;8.77;;;563.20;2432.00;;;;;;5046328;28;20436;-55
2022/06/06 03:57:22;;;;;;;11.90;8.20;;;563.30;2432.00;;;;;;5093340;28;20017;-55
2022/06/06 03:59:55;;;;;;;9.38;7.70;;;563.60;2432.00;;;;;;5093124;28;20036;-55
2022/06/06 04:02:28;;;;;;;9.57;6.95;;;563.70;2432.00;;;;;;5093157;28;20420;-55
2022/06/06 04:04:55;;;;;;;8.73;7.07;;;564.10;2432.00;;;;;;5092913;28;20085;-55
2022/06/06 04:07:21;;;;;;;10.70;7.65;;;564.10;2432.00;;;;;;5092891;28;20036;-55
2022/06/06 04:09:47;;;;;;;10.80;7.55;;;589.00;2432.00;;;;;;5092967;28;20027;-53
2022/06/06 04:12:18;;;;;;;8.93;6.95;;;589.20;2432.00;;;;;;5075007;28;20055;-55
2022/06/06 04:15:09;;;;;;;9.38;6.70;;;589.30;2432.00;;;;;;5092701;28;20048;-53
2022/06/06 04:18:17;;;;;;;8.40;6.75;;;589.40;2432.00;;;;;;5092595;28;20060;-55
2022/06/06 04:21:07;;;;;;;10.45;6.72;;;589.60;2432.00;;;;;;5010687;28;20539;-55
2022/06/06 04:23:43;;;;;;;13.27;8.05;;;589.70;2432.00;;;;;;5010428;28;20038;-55
2022/06/06 04:26:47;;;;;;;9.05;6.55;;;589.70;2432.00;;;;;;5010581;28;20022;-55
2022/06/06 04:29:28;;;;;;;10.05;7.75;;;614.60;2432.00;;;;;;5010424;28;20096;-55
2022/06/06 04:32:03;;;;;;;7.28;6.40;;;614.70;2432.00;;;;;;5010401;28;20029;-56
2022/06/06 04:34:46;;;;;;;9.40;6.97;;;691.70;2432.00;;;;;;5010440;28;20025;-55
2022/06/06 04:37:19;;;;;;;8.93;7.15;;;768.10;2432.00;;;;;;5010394;28;20030;-55
2022/06/06 04:39:45;;;;;;;8.25;7.10;;;819.20;2124.80;;;;;;4992000;28;20033;-55
2022/06/06 04:42:19;;;;;;;9.07;6.75;;;794.30;2201.60;;;;;;4990759;28;20030;-56
2022/06/06 04:44:55;;;;;;;7.90;6.18;;;845.70;1920.00;;;;;;4990424;28;20033;-56
2022/06/06 04:47:31;;;;;;;7.88;6.55;;;896.30;1740.80;;;;;;4990659;28;20085;-56
2022/06/06 04:50:01;;;;;;;7.93;6.38;;;896.60;1689.60;;;;;;4990477;28;20038;-55
2022/06/06 04:52:30;;;;;;;8.18;7.30;;;921.60;1664.00;;;;;;4990491;28;20022;-55
2022/06/06 04:54:57;;;;;;;12.35;7.28;;;922.00;1638.40;;;;;;4990482;28;20030;-55
2022/06/06 04:57:24;;;;;;;8.40;6.75;;;922.50;1612.80;;;;;;5071634;28;20029;-56
2022/06/06 04:59:51;;;;;;;9.00;7.18;;;948.10;1510.40;;;;;;5071630;28;20527;-55
2022/06/06 05:02:19;;;;;;;7.80;7.10;;;973.00;1510.40;;;;;;5071764;28;20387;-55
2022/06/06 05:04:44;;;;;;;8.95;7.47;;;973.40;1484.80;;;;;;5071561;28;20043;-55
2022/06/06 05:07:21;;;;;;;13.45;8.65;;;948.10;1510.40;;;;;;5071662;28;20467;-55
2022/06/06 05:10:09;;;;;;;10.38;7.18;;;973.20;1484.80;;;;;;5071415;28;20029;-55
2022/06/06 05:12:59;;;;;;;9.38;8.07;;;998.50;1459.20;;;;;;5071168;28;20170;-56
2022/06/06 05:16:05;;;;;;;9.50;8.63;;;1024.20;1382.40;;;;;;5071294;28;20024;-55
2022/06/06 05:19:09;;;;;;;9.27;8.00;;;1049.80;1356.80;;;;;;5040217;28;20064;-55
2022/06/06 05:22:14;;;;;;;11.23;8.50;;;1050.10;1305.60;;;;;;5071149;28;20029;-54
2022/06/06 05:25:05;;;;;;;9.23;8.43;;;1075.20;1280.00;;;;;;5060402;28;20063;-55
2022/06/06 05:27:55;;;;;;;11.13;8.70;;;1076.10;1228.80;;;;;;5071072;28;20039;-54
2022/06/06 05:30:34;;;;;;;13.15;9.48;;;1101.30;1203.20;;;;;;5071223;28;20054;-54
2022/06/06 05:33:06;;;;;;;10.27;9.27;;;1126.60;1203.20;;;;;;5070981;28;20025;-54
2022/06/06 05:35:56;;;;;;;23.97;10.43;;;1152.00;1177.60;;;;;;5070929;28;20024;-53
2022/06/06 05:38:48;;;;;;;10.13;9.10;;;1152.90;1126.40;;;;;;5070808;28;20296;-54
2022/06/06 05:41:44;;;;;;;11.02;9.82;;;1177.60;1126.40;;;;;;4989368;28;20034;-54
2022/06/06 05:44:28;;;;;;;9.77;8.98;;;1178.00;1100.80;;;;;;4989473;28;20034;-54
2022/06/06 05:46:54;;;;;;;9.63;8.73;;;1178.10;1075.20;;;;;;4989347;28;20118;-54
2022/06/06 05:49:48;;;;;;;11.30;10.30;;;1203.60;1049.60;;;;;;4989452;28;20105;-53
2022/06/06 05:53:01;;;;;;;10.43;9.63;;;1203.70;1049.60;;;;;;4931140;29;20597;-55
2022/06/06 05:55:33;;;;;;;12.05;11.10;;;1228.80;1075.20;;;;;;4893433;29;20036;-53
2022/06/06 05:58:28;;;;;;;12.60;11.60;;;1228.80;1049.60;;;;;;4892846;29;20135;-53
2022/06/06 06:01:25;;;;;;;10.73;9.90;;;1203.80;1049.60;;;;;;4893566;29;20036;-54
2022/06/06 06:04:21;;;;;;;11.27;10.48;;;1178.30;1049.60;;;;;;4887018;29;20041;-54
2022/06/06 06:06:58;;;;;;;13.10;12.10;;;1203.40;1049.60;;;;;;4855992;29;20041;-54
2022/06/06 06:09:30;;;;;;;14.15;12.93;;;1228.80;1075.20;;;;;;4856084;29;20037;-55
2022/06/06 06:12:08;;;;;;;13.07;12.25;;;1229.20;1049.60;;;;;;4856145;29;20438;-54
2022/06/06 06:14:51;;;;;;;13.82;12.77;;;1254.80;1049.60;;;;;;4855915;29;20132;-54
2022/06/06 06:17:21;;;;;;;11.75;10.75;;;1254.60;1024.00;;;;;;4861662;29;20095;-54
2022/06/06 06:19:58;;;;;;;11.77;10.98;;;1254.60;1049.60;;;;;;4911879;29;20064;-54
2022/06/06 06:22:27;;;;;;;14.32;13.32;;;1229.20;1075.20;;;;;;4911995;29;20032;-54
2022/06/06 06:24:56;;;;;;;13.95;12.85;;;1254.60;1049.60;;;;;;4911900;29;20040;-55
2022/06/06 06:27:24;;;;;;;14.35;13.35;;;1229.40;1049.60;;;;;;4911928;29;20123;-55
2022/06/06 06:29:50;;;;;;;13.88;12.88;;;1254.50;1049.60;;;;;;4927634;29;20046;-54
2022/06/06 06:32:45;;;;;;;13.80;12.60;;;1255.10;1024.00;;;;;;4969599;28;20043;-54
2022/06/06 06:35:21;;;;;;;11.55;9.32;;;1229.40;1075.20;;;;;;4988094;28;20701;-53
2022/06/06 06:38:03;;;;;;;14.57;13.57;;;;;;;;;;4988476;28;20133;-52
2022/06/06 06:40:52;;;;;;;12.50;11.60;;;1203.90;1049.60;;;;;;4988821;28;20031;-53
2022/06/06 06:43:43;;;;;;;13.52;12.43;;;1228.90;1049.60;;;;;;5033860;28;20032;-53
2022/06/06 06:46:20;;;;;;;13.15;12.15;;;1177.60;1100.80;;;;;;5069965;28;20085;-51
2022/06/06 06:48:51;;;;;;;14.00;12.98;;;1203.30;1075.20;;;;;;5069746;28;20033;-53
2022/06/06 06:51:22;;;;;;;14.05;13.07;;;1228.80;1075.20;;;;;;5069110;28;20024;-54
2022/06/06 06:54:03;;;;;;;15.05;14.00;;;1229.50;1024.00;;;;;;5069343;28;20028;-55
2022/06/06 06:56:36;;;;;;;14.50;13.60;;;1254.50;1049.60;;;;;;5067097;28;20111;-55
2022/06/06 06:59:28;;;;;;;13.38;12.43;;;1254.90;1024.00;;;;;;5067210;28;20058;-54
2022/06/06 07:08:45;;;;;;;10.93;10.13;;;1331.20;896.00;;;;;;5068510;28;20040;-52
2022/06/06 07:11:48;;;;;;;15.38;13.93;;;1254.40;1024.00;;;;;;5030223;28;20083;-55
2022/06/06 07:14:38;;;;;;;15.02;14.13;;;1280.40;972.80;;;;;;5029729;28;20064;-55
2022/06/06 07:17:08;;;;;;;15.63;14.43;;;1305.90;921.60;;;;;;5028555;28;20542;-55
2022/06/06 07:19:44;;;;;;;16.55;15.55;;;1331.60;896.00;;;;;;5029888;28;20080;-55
2022/06/06 07:22:11;;;;;;;10.93;10.02;;;1356.80;921.60;;;;;;5024856;28;20021;-56
2022/06/06 07:24:39;;;;;;;16.17;14.70;;;1254.40;1024.00;;;;;;5029885;28;20096;-55
2022/06/06 07:27:08;;;;;;;15.32;14.43;;;1229.40;998.40;;;;;;5029675;28;20048;-56
2022/06/06 07:29:34;;;;;;;14.70;13.52;;;1280.40;972.80;;;;;;5029774;28;20025;-55
2022/06/06 07:32:21;;;;;;;13.48;12.68;;;1280.40;921.60;;;;;;5030035;28;20128;-54
2022/06/06 07:34:59;;;;;;;13.60;12.52;;;1255.00;972.80;;;;;;5029398;28;20112;-55
2022/06/06 07:37:27;;;;;;;13.50;12.57;;;1280.00;921.60;;;;;;5031072;28;20036;-54
2022/06/06 07:40:23;;;;;;;14.20;13.00;;;1280.90;896.00;;;;;;5031172;28;20048;-57
2022/06/06 07:43:27;;;;;;;14.15;13.05;;;1305.90;896.00;;;;;;5031310;28;20037;-53
2022/06/06 07:46:07;;;;;;;14.80;13.90;;;1305.70;870.40;;;;;;5036401;28;20928;-53
2022/06/06 07:48:50;;;;;;;15.50;14.20;;;1255.30;947.20;;;;;;5073105;28;20027;-55
2022/06/06 07:51:24;;;;;;;12.50;11.20;;;1280.00;947.20;;;;;;5072677;28;20029;-54
2022/06/06 07:54:13;;;;;;;10.18;9.20;;;1229.50;972.80;;;;;;5072938;28;20374;-53
2022/06/06 07:56:41;;;;;;;10.43;8.90;;;1126.90;1100.80;;;;;;5072401;28;20037;-53
2022/06/06 07:59:48;;;;;;;9.27;8.43;;;1075.40;1152.00;;;;;;5072322;28;20091;-55
2022/06/06 08:02:43;;;;;;;11.00;10.20;;;1024.10;1228.80;;;;;;4971896;28;20230;-54
2022/06/06 08:05:26;;;;;;;12.13;11.25;;;999.10;1280.00;;;;;;4972084;28;20425;-53
2022/06/06 08:08:09;;;;;;;12.48;11.43;;;1050.30;1203.20;;;;;;4971972;28;20488;-53
2022/06/06 08:10:44;;;;;;;9.05;8.30;;;1075.50;1152.00;;;;;;4971614;28;20046;-53
2022/06/06 08:13:27;;;;;;;10.40;9.50;;;1075.40;1152.00;;;;;;4971896;28;20085;-53
2022/06/06 08:16:11;;;;;;;10.80;9.55;;;998.90;1280.00;;;;;;4971734;28;20990;-55
2022/06/06 08:19:13;;;;;;;7.22;6.53;;;973.70;1280.00;;;;;;4971389;28;20133;-54
2022/06/06 08:21:47;;;;;;;11.00;7.72;;;947.50;1356.80;;;;;;4971154;28;20036;-51
2022/06/06 08:24:22;;;;;;;7.45;6.85;;;948.10;1305.60;;;;;;4971725;28;20436;-50
2022/06/06 08:26:50;;;;;;;8.05;7.25;;;947.40;1331.20;;;;;;4971306;28;20098;-54
2022/06/06 08:29:16;;;;;;;7.93;7.18;;;922.50;1331.20;;;;;;4971365;28;20393;-55
2022/06/06 08:31:42;;;;;;;8.35;6.75;;;922.00;1408.00;;;;;;4970910;28;20512;-51
2022/06/06 08:34:08;;;;;;;7.03;6.32;;;921.80;1408.00;;;;;;4970398;28;20030;-53
2022/06/06 08:36:58;;;;;;;7.25;6.55;;;896.10;1433.60;;;;;;4977049;28;20031;-53
2022/06/06 08:39:43;;;;;;;6.68;6.03;;;870.90;1484.80;;;;;;5060424;28;20086;-53
2022/06/06 08:42:57;;;;;;;7.78;6.97;;;870.90;1484.80;;;;;;5066006;28;20076;-52
2022/06/06 08:45:56;;;;;;;6.65;5.97;;;870.70;1484.80;;;;;;5010312;28;20096;-52
2022/06/06 08:48:39;;;;;;;7.18;6.53;;;870.70;1510.40;;;;;;5010144;28;20108;-51
2022/06/06 08:51:23;;;;;;;6.93;6.25;;;870.50;1536.00;;;;;;5009878;28;20030;-52
2022/06/06 08:54:28;;;;;;;7.43;6.63;;;870.40;1536.00;;;;;;5010130;28;20038;-52
2022/06/06 08:57:12;;;;;;;6.45;5.85;;;845.20;1561.60;;;;;;5009890;28;20118;-52
2022/06/06 09:00:03;;;;;;;8.10;7.07;;;845.10;1587.20;;;;;;5009643;28;20050;-52
2022/06/06 09:03:07;;;;;;;8.02;7.22;;;845.40;1536.00;;;;;;5010077;28;20473;-52
2022/06/06 09:05:51;;;;;;;10.70;7.13;;;845.30;1536.00;;;;;;5009764;28;20439;-52
2022/06/06 09:08:25;;;;;;;7.93;6.90;;;845.00;1561.60;;;;;;4993336;28;20041;-52
2022/06/06 09:11:25;;;;;;;7.25;6.55;;;819.50;1612.80;;;;;;5009782;28;20022;-52
2022/06/06 09:13:59;;;;;;;8.20;7.05;;;794.40;1638.40;;;;;;5009735;28;20092;-52
2022/06/06 09:17:02;;;;;;;7.35;6.65;;;793.70;1689.60;;;;;;5009728;28;20445;-53
2022/06/06 09:20:02;;;;;;;7.15;6.45;;;794.30;1638.40;;;;;;5009663;28;20533;-54
2022/06/06 09:22:36;;;;;;;7.95;6.78;;;794.30;1638.40;;;;;;5041634;28;20033;-52
2022/06/06 09:25:25;;;;;;;7.45;6.65;;;794.50;1612.80;;;;;;5051560;28;20025;-54
2022/06/06 09:28:26;;;;;;;8.82;7.03;;;819.60;1612.80;;;;;;5051061;28;20032;-52
2022/06/06 09:31:23;;;;;;;7.30;6.60;;;819.80;1561.60;;;;;;5050894;28;20033;-52
2022/06/06 09:34:32;;;;;;;8.48;6.20;;;819.70;1587.20;;;;;;5050811;28;20036;-54
2022/06/06 09:37:08;;;;;;;6.10;5.50;;;819.50;1587.20;;;;;;5050964;28;20029;-53
2022/06/06 09:39:55;;;;;;;7.63;6.32;;;794.40;1612.80;;;;;;5050880;28;20033;-52
2022/06/06 09:42:56;;;;;;;7.50;6.03;;;794.40;1612.80;;;;;;5051032;28;20025;-51
2022/06/06 09:45:34;;;;;;;7.28;5.53;;;794.20;1612.80;;;;;;5050914;28;20036;-55
2022/06/06 09:48:18;;;;;;;10.15;6.10;;;794.20;1612.80;;;;;;5051087;28;20087;-54
2022/06/06 09:51:02;;;;;;;6.72;5.38;;;793.70;1689.60;;;;;;5050498;28;20049;-54
2022/06/06 10:00:20;;;;;;;6.97;5.07;;;793.80;1638.40;;;;;;5050836;28;20126;-55
2022/06/06 10:03:16;;;;;;;7.82;5.40;;;793.70;1664.00;;;;;;5050629;28;20028;-54
2022/06/06 10:06:08;;;;;;;7.22;5.63;;;793.70;1638.40;;;;;;5050676;28;20029;-54
2022/06/06 10:08:48;;;;;;;7.63;6.00;;;793.60;1638.40;;;;;;5050236;28;20463;-52
2022/06/06 10:11:33;;;;;;;6.22;5.20;;;793.60;1638.40;;;;;;5050274;28;20032;-54
2022/06/06 10:14:44;;;;;;;7.60;5.65;;;768.90;1664.00;;;;;;5050539;28;20025;-52
2022/06/06 10:17:19;;;;;;;7.60;5.85;;;793.70;1664.00;;;;;;5008707;28;20034;-51
2022/06/06 10:19:59;;;;;;;7.68;5.35;;;768.50;1664.00;;;;;;5008302;28;20057;-53
2022/06/06 10:22:46;;;;;;;7.05;5.60;;;768.60;1638.40;;;;;;5008406;28;20033;-51
2022/06/06 10:25:37;;;;;;;7.13;5.85;;;768.50;1664.00;;;;;;5008360;28;20425;-54
2022/06/06 10:28:21;;;;;;;6.80;5.85;;;768.70;1638.40;;;;;;4992194;28;20435;-53
2022/06/06 10:30:49;;;;;;;6.75;5.78;;;768.80;1612.80;;;;;;5008199;28;20120;-53
2022/06/06 10:33:23;;;;;;;6.15;5.20;;;793.80;1587.20;;;;;;5008354;28;20556;-53
2022/06/06 10:36:11;;;;;;;7.47;5.65;;;794.00;1587.20;;;;;;5008318;28;20480;-53
2022/06/06 10:38:58;;;;;;;6.53;5.30;;;794.00;1587.20;;;;;;5008024;28;20042;-54
2022/06/06 10:41:54;;;;;;;6.82;6.13;;;794.00;1612.80;;;;;;5008209;28;20157;-52
2022/06/06 10:44:48;;;;;;;6.55;5.28;;;794.20;1587.20;;;;;;5008112;28;20113;-53
2022/06/06 10:47:38;;;;;;;6.45;5.85;;;794.30;1587.20;;;;;;5008033;28;20464;-53
2022/06/06 10:50:18;;;;;;;7.38;5.93;;;794.20;1612.80;;;;;;5013111;28;20030;-54
2022/06/06 10:53:24;;;;;;;6.68;5.97;;;794.50;1536.00;;;;;;5049880;28;20033;-53
2022/06/06 10:56:08;;;;;;;6.22;5.43;;;794.30;1561.60;;;;;;5050096;28;20083;-57
2022/06/06 10:58:56;;;;;;;6.88;5.75;;;819.20;1561.60;;;;;;5049316;28;20568;-52
2022/06/06 11:01:56;;;;;;;9.63;6.22;;;794.50;1612.80;;;;;;5050041;28;20156;-55
2022/06/06 11:05:00;;;;;;;8.13;5.47;;;794.00;1638.40;;;;;;5049883;28;20159;-56
2022/06/06 11:07:31;;;;;;;5.43;4.85;;;768.90;1638.40;;;;;;5049583;28;20463;-55
2022/06/06 11:10:09;;;;;;;6.38;5.22;;;768.80;1612.80;;;;;;5049957;28;20033;-55
2022/06/06 11:12:53;;;;;;;7.60;5.53;;;768.50;1638.40;;;;;;5049460;28;20046;-55
2022/06/06 11:15:19;;;;;;;9.30;6.93;;;768.00;1689.60;;;;;;5049704;28;20036;-55
2022/06/06 11:18:32;;;;;;;8.77;7.65;;;743.20;1689.60;;;;;;5049311;28;20037;-55
2022/06/06 11:21:42;;;;;;;7.35;6.50;;;743.10;1689.60;;;;;;5007783;28;20026;-55
2022/06/06 11:24:28;;;;;;;7.72;6.93;;;743.00;1740.80;;;;;;4968698;28;20132;-55
2022/06/06 11:27:24;;;;;;;8.23;6.95;;;743.00;1766.40;;;;;;4968675;28;20509;-54
2022/06/06 11:30:19;;;;;;;7.68;6.00;;;742.90;1766.40;;;;;;4968740;28;20043;-55
2022/06/06 11:33:05;;;;;;;9.65;6.13;;;743.00;1792.00;;;;;;4967396;28;20031;-55
2022/06/06 11:35:37;;;;;;;10.65;7.40;;;742.90;1792.00;;;;;;4968746;28;20034;-55
2022/06/06 11:38:22;;;;;;;6.32;5.30;;;742.60;1817.60;;;;;;4967887;28;20042;-54
2022/06/06 11:41:12;;;;;;;7.30;5.88;;;742.50;1817.60;;;;;;4966660;28;20058;-54
2022/06/06 11:43:59;;;;;;;8.68;5.70;;;717.60;1817.60;;;;;;4966769;28;20030;-55
2022/06/06 11:46:25;;;;;;;9.98;6.93;;;717.20;1843.20;;;;;;4966717;28;20075;-55
2022/06/06 11:49:21;;;;;;;6.82;6.15;;;717.10;1868.80;;;;;;4966704;28;20039;-55
2022/06/06 11:52:32;;;;;;;7.95;6.15;;;716.80;1894.40;;;;;;4966173;28;20121;-55
2022/06/06 11:55:35;;;;;;;8.75;7.05;;;692.00;1894.40;;;;;;4979658;28;20412;-56
2022/06/06 11:58:19;;;;;;;;;;;691.70;1894.40;;;;;;5030710;28;20124;-56
2022/06/06 12:00:44;;;;;;;;;;;691.70;1894.40;;;;;;5051773;28;19909;-55
2022/06/06 12:03:32;;;;;;;6.53;5.82;;;691.90;1894.40;;;;;;5051305;28;20259;-54
2022/06/06 12:06:19;;;;;;;6.72;5.65;;;692.10;1868.80;;;;;;5069695;28;20039;-55
2022/06/06 12:09:26;;;;;;;8.43;6.13;;;692.10;1843.20;;;;;;5068473;28;20031;-54
2022/06/06 12:11:57;;;;;;;10.10;5.07;;;717.00;1843.20;;;;;;4989006;28;20038;-52
2022/06/06 12:15:00;;;;;;;6.65;5.15;;;716.90;1817.60;;;;;;4988559;28;20039;-51
2022/06/06 12:17:41;;;;;;;5.82;5.22;;;716.90;1843.20;;;;;;4986205;28;20100;-51
2022/06/06 12:20:38;;;;;;;5.32;4.70;;;716.80;1843.20;;;;;;4988314;28;20038;-53
2022/06/06 12:23:30;;;;;;;6.05;5.13;;;692.10;1792.00;;;;;;4979702;28;20031;-50
2022/06/06 12:26:21;;;;;;;5.78;4.70;;;691.90;1792.00;;;;;;4988770;28;20389;-53
2022/06/06 12:28:50;;;;;;;6.30;5.07;;;691.70;1792.00;;;;;;4986008;28;20496;-53
2022/06/06 12:31:24;;;;;;;4.47;4.00;;;691.90;1792.00;;;;;;4988391;28;20031;-55
2022/06/06 12:34:04;;;;;;;6.70;4.43;;;691.80;1766.40;;;;;;4989094;28;20061;-53
2022/06/06 12:36:38;;;;;;;8.45;4.18;;;691.80;1792.00;;;;;;4989008;28;20031;-53
2022/06/06 12:39:41;;;;;;;5.20;4.20;;;691.80;1792.00;;;;;;4988850;28;20042;-53
2022/06/06 12:42:12;;;;;;;;;;;691.80;1792.00;;;;;;4989258;28;20030;-54
2022/06/06 12:45:03;;;;;;;5.95;4.63;;;691.70;1792.00;;;;;;4989757;28;20069;-54
2022/06/06 12:47:37;;;;;;;5.93;4.28;;;691.40;1817.60;;;;;;5050324;28;20463;-53
2022/06/06 12:50:05;;;;;;;6.13;4.47;;;691.20;1843.20;;;;;;5050254;28;20032;-53
2022/06/06 12:52:58;;;;;;;5.88;5.32;;;691.40;1843.20;;;;;;5050306;28;20025;-53
2022/06/06 12:55:31;;;;;;;9.53;4.67;;;691.20;1894.40;;;;;;5050469;28;20044;-53
2022/06/06 12:58:15;;;;;;;5.38;4.35;;;691.30;1843.20;;;;;;5049450;28;20052;-53
2022/06/06 13:03:50;;;;;;;6.80;5.20;;;691.60;1843.20;;;;;;5050523;28;20080;-53
2022/06/06 13:06:53;;;;;;;9.68;5.43;;;691.60;1843.20;;;;;;5049933;28;20068;-53
2022/06/06 13:09:30;;;;;;;6.07;5.13;;;691.90;1817.60;;;;;;5050095;28;20017;-55
2022/06/06 13:12:07;;;;;;;5.63;4.90;;;691.80;1843.20;;;;;;5049951;28;20029;-53
2022/06/06 13:14:54;;;;;;;4.95;4.32;;;692.10;1740.80;;;;;;5050022;28;20487;-52
2022/06/06 13:17:25;;;;;;;5.80;4.40;;;716.90;1689.60;;;;;;5050081;28;20037;-54
2022/06/06 13:20:43;;;;;;;4.63;3.83;;;717.10;1664.00;;;;;;5050019;28;20033;-52
2022/06/06 13:23:40;;;;;;;5.40;3.65;;;717.40;1664.00;;;;;;4968289;28;20054;-55
2022/06/06 13:26:35;;;;;;;6.00;3.95;;;717.40;1638.40;;;;;;4968724;28;20070;-54
2022/06/06 13:29:03;;;;;;;6.15;4.35;;;717.00;1664.00;;;;;;4968890;28;20035;-57
2022/06/06 13:31:57;;;;;;;5.43;3.63;;;717.10;1664.00;;;;;;4968284;28;20039;-56
2022/06/06 13:34:23;;;;;;;6.00;4.53;;;717.10;1638.40;;;;;;4968597;28;20042;-55
2022/06/06 13:36:54;;;;;;;4.55;3.38;;;717.20;1664.00;;;;;;4967996;28;20382;-54
2022/06/06 13:39:26;;;;;;;5.93;3.97;;;717.30;1638.40;;;;;;4968306;28;20050;-54
2022/06/06 13:42:11;;;;;;;5.72;4.95;;;717.40;1612.80;;;;;;4968475;28;20354;-54